RYR18EN LIBD-LIMC
Flight info
| Callsign | RYR18EN |
|---|---|
| Flight time | 1h 21m |
| Altitude | 34000 |
| Route | PISIP DCT VIE DCT LOMED DCT BEROK DCT MIVKI DCT GOLAS DCT MEBUR |
| Aircraft | B738/M-SDE2E3FGHIRWXY/LB1 |
Departure
| Time | 2026-04-23 23:28 |
|---|---|
| Airport | Bari Karol Wojtyła International Airport (LIBD) |
Arrival
| Time | 2026-04-24 00:49 |
|---|---|
| Airport | Milan Malpensa International Airport (LIMC) |
| Time | Latitude | Longitude | Altitude | Speed | Heading |
|---|---|---|---|---|---|
| 2026-04-23 22:54 | 41.13503 | 16.76234 | 145 ft | 0 kts | 161° |
| 2026-04-23 23:21 | 41.13508 | 16.76233 | 145 ft | 4 kts | 149° |
| 2026-04-23 23:21 | 41.13532 | 16.76218 | 144 ft | 4 kts | 148° |
| 2026-04-23 23:22 | 41.13550 | 16.76195 | 144 ft | 4 kts | 114° |
| 2026-04-23 23:22 | 41.13554 | 16.76168 | 144 ft | 1 kts | 69° |
| 2026-04-23 23:22 | 41.13553 | 16.76167 | 144 ft | 0 kts | 69° |
| 2026-04-23 23:25 | 41.13557 | 16.76178 | 144 ft | 9 kts | 69° |
| 2026-04-23 23:25 | 41.13599 | 16.76330 | 139 ft | 23 kts | 70° |
| 2026-04-23 23:26 | 41.13682 | 16.76542 | 128 ft | 28 kts | 30° |
| 2026-04-23 23:26 | 41.13814 | 16.76590 | 122 ft | 16 kts | 58° |
| 2026-04-23 23:26 | 41.13863 | 16.76760 | 117 ft | 28 kts | 69° |
| 2026-04-23 23:26 | 41.13936 | 16.77015 | 114 ft | 31 kts | 69° |
| 2026-04-23 23:27 | 41.14009 | 16.77275 | 110 ft | 27 kts | 70° |
| 2026-04-23 23:27 | 41.14136 | 16.77417 | 101 ft | 20 kts | 9° |
| 2026-04-23 23:27 | 41.14214 | 16.77334 | 99 ft | 17 kts | 254° |
| 2026-04-23 23:27 | 41.14153 | 16.77112 | 109 ft | 57 kts | 250° |
| 2026-04-23 23:28 | 41.13898 | 16.76224 | 133 ft | 145 kts | 248° |
| 2026-04-23 23:28 | 41.13502 | 16.74782 | 733 ft | 178 kts | 255° |
| 2026-04-23 23:28 | 41.13101 | 16.73145 | 1772 ft | 193 kts | 257° |
| 2026-04-23 23:28 | 41.12689 | 16.71516 | 3107 ft | 185 kts | 259° |
| 2026-04-23 23:29 | 41.12281 | 16.69742 | 3581 ft | 214 kts | 257° |
| 2026-04-23 23:29 | 41.11671 | 16.67879 | 4273 ft | 224 kts | 250° |
| 2026-04-23 23:29 | 41.11055 | 16.65983 | 5117 ft | 226 kts | 252° |
| 2026-04-23 23:29 | 41.10460 | 16.64003 | 5949 ft | 233 kts | 253° |
| 2026-04-23 23:30 | 41.09876 | 16.62007 | 7016 ft | 232 kts | 253° |
| 2026-04-23 23:30 | 41.09296 | 16.60000 | 7961 ft | 235 kts | 253° |
| 2026-04-23 23:30 | 41.09033 | 16.57907 | 8882 ft | 229 kts | 284° |
| 2026-04-23 23:30 | 41.09698 | 16.56046 | 9785 ft | 228 kts | 314° |
| 2026-04-23 23:31 | 41.11026 | 16.54702 | 10104 ft | 256 kts | 331° |
| 2026-04-23 23:31 | 41.12113 | 16.53962 | 10315 ft | 275 kts | 334° |
| 2026-04-23 23:31 | 41.13947 | 16.52835 | 10536 ft | 305 kts | 335° |
| 2026-04-23 23:31 | 41.15957 | 16.51639 | 10979 ft | 325 kts | 335° |
| 2026-04-23 23:32 | 41.18042 | 16.50400 | 11825 ft | 330 kts | 335° |
| 2026-04-23 23:32 | 41.20138 | 16.49143 | 12807 ft | 332 kts | 334° |
| 2026-04-23 23:32 | 41.22247 | 16.47868 | 13786 ft | 334 kts | 334° |
| 2026-04-23 23:32 | 41.24367 | 16.46577 | 14664 ft | 336 kts | 334° |
| 2026-04-23 23:33 | 41.26499 | 16.45272 | 15499 ft | 339 kts | 333° |
| 2026-04-23 23:33 | 41.28650 | 16.43950 | 16335 ft | 342 kts | 333° |
| 2026-04-23 23:33 | 41.30817 | 16.42615 | 17182 ft | 344 kts | 332° |
| 2026-04-23 23:33 | 41.33002 | 16.41267 | 17995 ft | 348 kts | 332° |
| 2026-04-23 23:34 | 41.35204 | 16.39906 | 18742 ft | 351 kts | 332° |
| 2026-04-23 23:34 | 41.37422 | 16.38534 | 19491 ft | 351 kts | 331° |
| 2026-04-23 23:34 | 41.39640 | 16.37162 | 20271 ft | 352 kts | 330° |
| 2026-04-23 23:34 | 41.41864 | 16.35784 | 21023 ft | 353 kts | 330° |
| 2026-04-23 23:35 | 41.44090 | 16.34405 | 21760 ft | 354 kts | 330° |
| 2026-04-23 23:35 | 41.46350 | 16.33002 | 22283 ft | 361 kts | 331° |
| 2026-04-23 23:35 | 41.48639 | 16.31580 | 22906 ft | 364 kts | 330° |
| 2026-04-23 23:35 | 41.50941 | 16.30149 | 23620 ft | 365 kts | 330° |
| 2026-04-23 23:36 | 41.53250 | 16.28714 | 24195 ft | 366 kts | 330° |
| 2026-04-23 23:36 | 41.55567 | 16.27272 | 24734 ft | 368 kts | 330° |
| 2026-04-23 23:36 | 41.57895 | 16.25822 | 25246 ft | 370 kts | 329° |
| 2026-04-23 23:36 | 41.60238 | 16.24362 | 25754 ft | 372 kts | 329° |
| 2026-04-23 23:37 | 41.62586 | 16.22896 | 26264 ft | 374 kts | 329° |
| 2026-04-23 23:37 | 41.64951 | 16.21420 | 26766 ft | 376 kts | 329° |
| 2026-04-23 23:37 | 41.67327 | 16.19936 | 27244 ft | 378 kts | 329° |
| 2026-04-23 23:37 | 41.69710 | 16.18446 | 27705 ft | 380 kts | 328° |
| 2026-04-23 23:38 | 41.72109 | 16.16945 | 28166 ft | 382 kts | 328° |
| 2026-04-23 23:38 | 41.74520 | 16.15435 | 28611 ft | 383 kts | 328° |
| 2026-04-23 23:38 | 41.76947 | 16.13914 | 29018 ft | 386 kts | 328° |
| 2026-04-23 23:38 | 41.79386 | 16.12385 | 29445 ft | 388 kts | 328° |
| 2026-04-23 23:39 | 41.81835 | 16.10850 | 29913 ft | 389 kts | 328° |
| 2026-04-23 23:39 | 41.84285 | 16.09311 | 30328 ft | 389 kts | 328° |
| 2026-04-23 23:39 | 41.86733 | 16.07769 | 30744 ft | 388 kts | 327° |
| 2026-04-23 23:39 | 41.89017 | 16.05920 | 31180 ft | 381 kts | 318° |
| 2026-04-23 23:40 | 41.91047 | 16.03612 | 31319 ft | 385 kts | 313° |
| 2026-04-23 23:40 | 41.92909 | 16.01022 | 31640 ft | 384 kts | 308° |
| 2026-04-23 23:40 | 41.94452 | 15.98120 | 32147 ft | 379 kts | 301° |
| 2026-04-23 23:40 | 41.95825 | 15.95114 | 32632 ft | 377 kts | 300° |
| 2026-04-23 23:41 | 41.97181 | 15.92092 | 32995 ft | 378 kts | 300° |
| 2026-04-23 23:41 | 41.98537 | 15.89057 | 33344 ft | 379 kts | 300° |
| 2026-04-23 23:41 | 41.99892 | 15.86028 | 33755 ft | 378 kts | 300° |
| 2026-04-23 23:41 | 42.01250 | 15.83001 | 34179 ft | 377 kts | 300° |
| 2026-04-23 23:42 | 42.02608 | 15.79982 | 34435 ft | 379 kts | 300° |
| 2026-04-23 23:42 | 42.03980 | 15.76937 | 34620 ft | 382 kts | 301° |
| 2026-04-23 23:42 | 42.05358 | 15.73879 | 34861 ft | 384 kts | 301° |
| 2026-04-23 23:42 | 42.06746 | 15.70799 | 35119 ft | 385 kts | 301° |
| 2026-04-23 23:43 | 42.08137 | 15.67711 | 35347 ft | 387 kts | 301° |
| 2026-04-23 23:43 | 42.09534 | 15.64608 | 35577 ft | 389 kts | 301° |
| 2026-04-23 23:43 | 42.10936 | 15.61489 | 35877 ft | 388 kts | 301° |
| 2026-04-23 23:43 | 42.12336 | 15.58373 | 36113 ft | 390 kts | 301° |
| 2026-04-23 23:44 | 42.13744 | 15.55236 | 36290 ft | 393 kts | 301° |
| 2026-04-23 23:44 | 42.15164 | 15.52069 | 36422 ft | 397 kts | 301° |
| 2026-04-23 23:44 | 42.16593 | 15.48878 | 36608 ft | 399 kts | 301° |
| 2026-04-23 23:44 | 42.18029 | 15.45667 | 36841 ft | 401 kts | 302° |
| 2026-04-23 23:45 | 42.19479 | 15.42423 | 36958 ft | 405 kts | 302° |
| 2026-04-23 23:45 | 42.20935 | 15.39162 | 37137 ft | 407 kts | 302° |
| 2026-04-23 23:45 | 42.22403 | 15.35869 | 37131 ft | 411 kts | 302° |
| 2026-04-23 23:46 | 42.25342 | 15.29265 | 37144 ft | 409 kts | 302° |
| 2026-04-23 23:46 | 42.28225 | 15.22771 | 37143 ft | 400 kts | 302° |
| 2026-04-23 23:47 | 42.31084 | 15.16319 | 37161 ft | 400 kts | 302° |
| 2026-04-23 23:47 | 42.33942 | 15.09856 | 37157 ft | 401 kts | 302° |
| 2026-04-23 23:48 | 42.36798 | 15.03383 | 37171 ft | 401 kts | 301° |
| 2026-04-23 23:48 | 42.39655 | 14.96895 | 37172 ft | 402 kts | 301° |
| 2026-04-23 23:49 | 42.43941 | 14.87131 | 37172 ft | 403 kts | 301° |
| 2026-04-23 23:49 | 42.46802 | 14.80597 | 37189 ft | 404 kts | 302° |
| 2026-04-23 23:50 | 42.49666 | 14.74040 | 37180 ft | 405 kts | 302° |
| 2026-04-23 23:50 | 42.52540 | 14.67447 | 37183 ft | 407 kts | 302° |
| 2026-04-23 23:51 | 42.55422 | 14.60821 | 37186 ft | 408 kts | 302° |
| 2026-04-23 23:51 | 42.58305 | 14.54176 | 37185 ft | 409 kts | 301° |
| 2026-04-23 23:52 | 42.61191 | 14.47509 | 37191 ft | 410 kts | 301° |
| 2026-04-23 23:52 | 42.64078 | 14.40826 | 37190 ft | 410 kts | 301° |
| 2026-04-23 23:53 | 42.66962 | 14.34133 | 37198 ft | 410 kts | 301° |
| 2026-04-23 23:53 | 42.69839 | 14.27443 | 37198 ft | 410 kts | 301° |
| 2026-04-23 23:54 | 42.72709 | 14.20752 | 37189 ft | 409 kts | 301° |
| 2026-04-23 23:54 | 42.75570 | 14.14069 | 37223 ft | 408 kts | 302° |
| 2026-04-23 23:55 | 42.78424 | 14.07385 | 37210 ft | 409 kts | 302° |
| 2026-04-23 23:55 | 42.81297 | 14.00644 | 37220 ft | 409 kts | 302° |
| 2026-04-23 23:56 | 42.84127 | 13.93988 | 37212 ft | 409 kts | 301° |
| 2026-04-23 23:56 | 42.86972 | 13.87280 | 37223 ft | 409 kts | 301° |
| 2026-04-23 23:57 | 42.89814 | 13.80562 | 37212 ft | 409 kts | 301° |
| 2026-04-23 23:57 | 42.92650 | 13.73845 | 37230 ft | 409 kts | 301° |
| 2026-04-23 23:58 | 42.95483 | 13.67119 | 37238 ft | 409 kts | 301° |
| 2026-04-23 23:58 | 42.98312 | 13.60388 | 37233 ft | 409 kts | 301° |
| 2026-04-23 23:59 | 43.01135 | 13.53654 | 37236 ft | 409 kts | 301° |
| 2026-04-23 23:59 | 43.03956 | 13.46911 | 37246 ft | 409 kts | 301° |
| 2026-04-24 00:00 | 43.06779 | 13.40147 | 37246 ft | 409 kts | 301° |
| 2026-04-24 00:00 | 43.09599 | 13.33374 | 37242 ft | 410 kts | 301° |
| 2026-04-24 00:01 | 43.12417 | 13.26589 | 37244 ft | 410 kts | 301° |
| 2026-04-24 00:01 | 43.15255 | 13.19741 | 37234 ft | 411 kts | 301° |
| 2026-04-24 00:02 | 43.18069 | 13.12935 | 37214 ft | 411 kts | 301° |
| 2026-04-24 00:02 | 43.20877 | 13.06126 | 37229 ft | 411 kts | 301° |
| 2026-04-24 00:03 | 43.23664 | 12.99353 | 37229 ft | 410 kts | 301° |
| 2026-04-24 00:03 | 43.26480 | 12.92495 | 37237 ft | 410 kts | 301° |
| 2026-04-24 00:04 | 43.29251 | 12.85727 | 37224 ft | 409 kts | 301° |
| 2026-04-24 00:04 | 43.32053 | 12.78869 | 37237 ft | 409 kts | 301° |
| 2026-04-24 00:05 | 43.34833 | 12.72050 | 37223 ft | 409 kts | 301° |
| 2026-04-24 00:05 | 43.37611 | 12.65218 | 37242 ft | 409 kts | 301° |
| 2026-04-24 00:06 | 43.40385 | 12.58382 | 37241 ft | 410 kts | 301° |
| 2026-04-24 00:06 | 43.43160 | 12.51523 | 37237 ft | 411 kts | 301° |
| 2026-04-24 00:07 | 43.45936 | 12.44648 | 37235 ft | 411 kts | 301° |
| 2026-04-24 00:07 | 43.48706 | 12.37772 | 37241 ft | 411 kts | 301° |
| 2026-04-24 00:08 | 43.51454 | 12.30931 | 37247 ft | 410 kts | 301° |
| 2026-04-24 00:08 | 43.54233 | 12.23998 | 37242 ft | 410 kts | 301° |
| 2026-04-24 00:09 | 43.56987 | 12.17111 | 37250 ft | 410 kts | 301° |
| 2026-04-24 00:09 | 43.59719 | 12.10262 | 37257 ft | 410 kts | 301° |
| 2026-04-24 00:10 | 43.62467 | 12.03359 | 37217 ft | 411 kts | 301° |
| 2026-04-24 00:10 | 43.65208 | 11.96452 | 37247 ft | 410 kts | 301° |
| 2026-04-24 00:11 | 43.67503 | 11.90658 | 37258 ft | 410 kts | 301° |
| 2026-04-24 00:11 | 43.70242 | 11.83729 | 37249 ft | 411 kts | 301° |
| 2026-04-24 00:12 | 43.72978 | 11.76789 | 37251 ft | 411 kts | 301° |
| 2026-04-24 00:12 | 43.75705 | 11.69856 | 37253 ft | 410 kts | 301° |
| 2026-04-24 00:13 | 43.78425 | 11.62922 | 37251 ft | 409 kts | 301° |
| 2026-04-24 00:13 | 43.81137 | 11.55992 | 37250 ft | 409 kts | 301° |
| 2026-04-24 00:14 | 43.83844 | 11.49060 | 37248 ft | 409 kts | 300° |
| 2026-04-24 00:14 | 43.86545 | 11.42123 | 37254 ft | 409 kts | 301° |
| 2026-04-24 00:15 | 43.89248 | 11.35168 | 37261 ft | 411 kts | 301° |
| 2026-04-24 00:15 | 43.91951 | 11.28197 | 36852 ft | 417 kts | 301° |
| 2026-04-24 00:16 | 43.93315 | 11.24669 | 36380 ft | 413 kts | 300° |
| 2026-04-24 00:16 | 43.94664 | 11.21176 | 35998 ft | 407 kts | 300° |
| 2026-04-24 00:16 | 43.95990 | 11.17735 | 35577 ft | 402 kts | 300° |
| 2026-04-24 00:16 | 43.97301 | 11.14336 | 35182 ft | 397 kts | 300° |
| 2026-04-24 00:17 | 43.98596 | 11.10976 | 34787 ft | 392 kts | 300° |
| 2026-04-24 00:17 | 43.99874 | 11.07655 | 34392 ft | 387 kts | 300° |
| 2026-04-24 00:17 | 44.01129 | 11.04384 | 33965 ft | 382 kts | 300° |
| 2026-04-24 00:17 | 44.02354 | 11.01136 | 33533 ft | 377 kts | 298° |
| 2026-04-24 00:18 | 44.03301 | 10.97769 | 33257 ft | 371 kts | 290° |
| 2026-04-24 00:18 | 44.04025 | 10.94365 | 32924 ft | 365 kts | 290° |
| 2026-04-24 00:18 | 44.04742 | 10.90967 | 32682 ft | 369 kts | 290° |
| 2026-04-24 00:18 | 44.05471 | 10.87528 | 32413 ft | 373 kts | 290° |
| 2026-04-24 00:19 | 44.06208 | 10.84066 | 32154 ft | 373 kts | 290° |
| 2026-04-24 00:19 | 44.06938 | 10.80639 | 31859 ft | 366 kts | 290° |
| 2026-04-24 00:19 | 44.07655 | 10.77276 | 31484 ft | 361 kts | 290° |
| 2026-04-24 00:19 | 44.08366 | 10.73949 | 31129 ft | 356 kts | 290° |
| 2026-04-24 00:20 | 44.09068 | 10.70665 | 30759 ft | 352 kts | 291° |
| 2026-04-24 00:20 | 44.09760 | 10.67426 | 30401 ft | 347 kts | 291° |
| 2026-04-24 00:20 | 44.10442 | 10.64232 | 29990 ft | 343 kts | 291° |
| 2026-04-24 00:20 | 44.11115 | 10.61077 | 29632 ft | 337 kts | 290° |
| 2026-04-24 00:21 | 44.11773 | 10.57983 | 29271 ft | 331 kts | 291° |
| 2026-04-24 00:21 | 44.12422 | 10.54929 | 28901 ft | 326 kts | 291° |
| 2026-04-24 00:21 | 44.13059 | 10.51930 | 28609 ft | 321 kts | 291° |
| 2026-04-24 00:21 | 44.13691 | 10.48954 | 28212 ft | 320 kts | 291° |
| 2026-04-24 00:22 | 44.14319 | 10.45997 | 27817 ft | 319 kts | 291° |
| 2026-04-24 00:22 | 44.14952 | 10.43013 | 27502 ft | 326 kts | 290° |
| 2026-04-24 00:22 | 44.15610 | 10.39911 | 27149 ft | 342 kts | 290° |
| 2026-04-24 00:22 | 44.16284 | 10.36707 | 26751 ft | 344 kts | 290° |
| 2026-04-24 00:23 | 44.16949 | 10.33521 | 26228 ft | 343 kts | 290° |
| 2026-04-24 00:23 | 44.17611 | 10.30324 | 25759 ft | 342 kts | 290° |
| 2026-04-24 00:23 | 44.18242 | 10.27267 | 25319 ft | 339 kts | 289° |
| 2026-04-24 00:23 | 44.18889 | 10.24127 | 24939 ft | 336 kts | 290° |
| 2026-04-24 00:24 | 44.19532 | 10.21015 | 24575 ft | 332 kts | 290° |
| 2026-04-24 00:24 | 44.20169 | 10.17931 | 24196 ft | 329 kts | 289° |
| 2026-04-24 00:24 | 44.20797 | 10.14885 | 23856 ft | 326 kts | 289° |
| 2026-04-24 00:24 | 44.21418 | 10.11861 | 23458 ft | 323 kts | 289° |
| 2026-04-24 00:25 | 44.22053 | 10.08873 | 23069 ft | 319 kts | 293° |
| 2026-04-24 00:25 | 44.22955 | 10.06082 | 22601 ft | 315 kts | 301° |
| 2026-04-24 00:25 | 44.24175 | 10.03538 | 22146 ft | 313 kts | 307° |
| 2026-04-24 00:25 | 44.25447 | 10.01072 | 21740 ft | 312 kts | 308° |
| 2026-04-24 00:26 | 44.26713 | 9.98626 | 21393 ft | 310 kts | 308° |
| 2026-04-24 00:26 | 44.27964 | 9.96201 | 21056 ft | 307 kts | 308° |
| 2026-04-24 00:26 | 44.29205 | 9.93791 | 20731 ft | 305 kts | 308° |
| 2026-04-24 00:26 | 44.30442 | 9.91380 | 20473 ft | 305 kts | 308° |
| 2026-04-24 00:27 | 44.31681 | 9.88962 | 20151 ft | 308 kts | 308° |
| 2026-04-24 00:27 | 44.32950 | 9.86482 | 19830 ft | 320 kts | 308° |
| 2026-04-24 00:27 | 44.34253 | 9.83931 | 19456 ft | 323 kts | 308° |
| 2026-04-24 00:27 | 44.35549 | 9.81388 | 19112 ft | 320 kts | 307° |
| 2026-04-24 00:28 | 44.36830 | 9.78873 | 18765 ft | 315 kts | 307° |
| 2026-04-24 00:28 | 44.38093 | 9.76387 | 18417 ft | 312 kts | 307° |
| 2026-04-24 00:28 | 44.39340 | 9.73937 | 18046 ft | 309 kts | 308° |
| 2026-04-24 00:28 | 44.40582 | 9.71493 | 17706 ft | 307 kts | 308° |
| 2026-04-24 00:29 | 44.41813 | 9.69069 | 17367 ft | 305 kts | 308° |
| 2026-04-24 00:29 | 44.43035 | 9.66661 | 17033 ft | 302 kts | 308° |
| 2026-04-24 00:29 | 44.44245 | 9.64271 | 16724 ft | 300 kts | 308° |
| 2026-04-24 00:29 | 44.45452 | 9.61902 | 16389 ft | 297 kts | 309° |
| 2026-04-24 00:30 | 44.46799 | 9.59691 | 15856 ft | 301 kts | 315° |
| 2026-04-24 00:30 | 44.48247 | 9.57595 | 15481 ft | 299 kts | 316° |
| 2026-04-24 00:30 | 44.49701 | 9.55535 | 15158 ft | 296 kts | 317° |
| 2026-04-24 00:30 | 44.51141 | 9.53490 | 14817 ft | 294 kts | 317° |
| 2026-04-24 00:31 | 44.52584 | 9.51427 | 14363 ft | 296 kts | 317° |
| 2026-04-24 00:31 | 44.54011 | 9.49373 | 14053 ft | 293 kts | 316° |
| 2026-04-24 00:31 | 44.55420 | 9.47334 | 13739 ft | 289 kts | 317° |
| 2026-04-24 00:31 | 44.56810 | 9.45317 | 13395 ft | 287 kts | 316° |
| 2026-04-24 00:32 | 44.58199 | 9.43297 | 13087 ft | 289 kts | 316° |
| 2026-04-24 00:32 | 44.59601 | 9.41254 | 12792 ft | 293 kts | 316° |
| 2026-04-24 00:32 | 44.61035 | 9.39163 | 12472 ft | 300 kts | 316° |
| 2026-04-24 00:32 | 44.62489 | 9.37037 | 12141 ft | 301 kts | 315° |
| 2026-04-24 00:33 | 44.63930 | 9.34927 | 11804 ft | 298 kts | 315° |
| 2026-04-24 00:33 | 44.65353 | 9.32840 | 11493 ft | 294 kts | 315° |
| 2026-04-24 00:33 | 44.66762 | 9.30774 | 11182 ft | 291 kts | 315° |
| 2026-04-24 00:33 | 44.68154 | 9.28733 | 10878 ft | 288 kts | 315° |
| 2026-04-24 00:34 | 44.69537 | 9.26703 | 10588 ft | 287 kts | 315° |
| 2026-04-24 00:34 | 44.70901 | 9.24700 | 10428 ft | 280 kts | 315° |
| 2026-04-24 00:34 | 44.72227 | 9.22750 | 10303 ft | 272 kts | 315° |
| 2026-04-24 00:34 | 44.73528 | 9.20835 | 10018 ft | 270 kts | 315° |
| 2026-04-24 00:35 | 44.74824 | 9.18926 | 9736 ft | 270 kts | 315° |
| 2026-04-24 00:35 | 44.76140 | 9.17017 | 9461 ft | 274 kts | 318° |
| 2026-04-24 00:35 | 44.77636 | 9.15335 | 9192 ft | 277 kts | 326° |
| 2026-04-24 00:35 | 44.79229 | 9.13773 | 8890 ft | 280 kts | 327° |
| 2026-04-24 00:36 | 44.80841 | 9.12220 | 8600 ft | 280 kts | 327° |
| 2026-04-24 00:36 | 44.82445 | 9.10665 | 8312 ft | 280 kts | 326° |
| 2026-04-24 00:36 | 44.84048 | 9.09096 | 8021 ft | 280 kts | 326° |
| 2026-04-24 00:36 | 44.85643 | 9.07521 | 7731 ft | 279 kts | 326° |
| 2026-04-24 00:37 | 44.87228 | 9.05947 | 7441 ft | 278 kts | 326° |
| 2026-04-24 00:37 | 44.88808 | 9.04371 | 7151 ft | 277 kts | 326° |
| 2026-04-24 00:37 | 44.90354 | 9.02826 | 6863 ft | 275 kts | 326° |
| 2026-04-24 00:37 | 44.91933 | 9.01244 | 6500 ft | 276 kts | 326° |
| 2026-04-24 00:38 | 44.93496 | 8.99676 | 6163 ft | 274 kts | 326° |
| 2026-04-24 00:38 | 44.95043 | 8.98123 | 5864 ft | 272 kts | 326° |
| 2026-04-24 00:38 | 44.96565 | 8.96593 | 5695 ft | 264 kts | 326° |
| 2026-04-24 00:38 | 44.98054 | 8.95096 | 5575 ft | 262 kts | 326° |
| 2026-04-24 00:39 | 44.99542 | 8.93600 | 5463 ft | 263 kts | 326° |
| 2026-04-24 00:39 | 45.01038 | 8.92092 | 5230 ft | 265 kts | 326° |
| 2026-04-24 00:39 | 45.02568 | 8.90651 | 5108 ft | 264 kts | 335° |
| 2026-04-24 00:39 | 45.04257 | 8.89763 | 5008 ft | 262 kts | 345° |
| 2026-04-24 00:40 | 45.06019 | 8.89132 | 4955 ft | 260 kts | 348° |
| 2026-04-24 00:40 | 45.07784 | 8.88597 | 4893 ft | 259 kts | 349° |
| 2026-04-24 00:40 | 45.09551 | 8.88100 | 4834 ft | 258 kts | 350° |
| 2026-04-24 00:40 | 45.11311 | 8.87615 | 4790 ft | 257 kts | 350° |
| 2026-04-24 00:41 | 45.13066 | 8.87132 | 4727 ft | 257 kts | 350° |
| 2026-04-24 00:41 | 45.14819 | 8.86649 | 4673 ft | 257 kts | 350° |
| 2026-04-24 00:41 | 45.16570 | 8.86167 | 4621 ft | 256 kts | 349° |
| 2026-04-24 00:41 | 45.18322 | 8.85683 | 4575 ft | 256 kts | 349° |
| 2026-04-24 00:42 | 45.20065 | 8.85202 | 4537 ft | 255 kts | 350° |
| 2026-04-24 00:42 | 45.21808 | 8.84721 | 4485 ft | 255 kts | 350° |
| 2026-04-24 00:42 | 45.23554 | 8.84239 | 4443 ft | 256 kts | 350° |
| 2026-04-24 00:42 | 45.25317 | 8.83738 | 4478 ft | 261 kts | 348° |
| 2026-04-24 00:43 | 45.27102 | 8.83230 | 4415 ft | 262 kts | 350° |
| 2026-04-24 00:43 | 45.28897 | 8.82776 | 4362 ft | 261 kts | 350° |
| 2026-04-24 00:43 | 45.30680 | 8.82307 | 4307 ft | 261 kts | 349° |
| 2026-04-24 00:43 | 45.32463 | 8.81821 | 4252 ft | 260 kts | 349° |
| 2026-04-24 00:44 | 45.34238 | 8.81329 | 4199 ft | 260 kts | 349° |
| 2026-04-24 00:44 | 45.36011 | 8.80836 | 4145 ft | 260 kts | 349° |
| 2026-04-24 00:44 | 45.37790 | 8.80342 | 4037 ft | 262 kts | 349° |
| 2026-04-24 00:44 | 45.39586 | 8.79844 | 3915 ft | 263 kts | 349° |
| 2026-04-24 00:45 | 45.41359 | 8.79352 | 3766 ft | 256 kts | 349° |
| 2026-04-24 00:45 | 45.43080 | 8.78875 | 3615 ft | 248 kts | 349° |
| 2026-04-24 00:45 | 45.44756 | 8.78411 | 3392 ft | 243 kts | 349° |
| 2026-04-24 00:45 | 45.46388 | 8.77958 | 3256 ft | 236 kts | 349° |
| 2026-04-24 00:46 | 45.47974 | 8.77519 | 3121 ft | 229 kts | 349° |
| 2026-04-24 00:46 | 45.49539 | 8.77085 | 2974 ft | 224 kts | 349° |
| 2026-04-24 00:46 | 45.51046 | 8.76667 | 2712 ft | 224 kts | 349° |
| 2026-04-24 00:46 | 45.52566 | 8.76246 | 2426 ft | 214 kts | 349° |
| 2026-04-24 00:47 | 45.53990 | 8.75851 | 2141 ft | 203 kts | 349° |
| 2026-04-24 00:47 | 45.55321 | 8.75482 | 1873 ft | 192 kts | 349° |
| 2026-04-24 00:47 | 45.56596 | 8.75129 | 1622 ft | 180 kts | 349° |
| 2026-04-24 00:47 | 45.57763 | 8.74806 | 1426 ft | 164 kts | 349° |
| 2026-04-24 00:48 | 45.58839 | 8.74507 | 1232 ft | 153 kts | 349° |
| 2026-04-24 00:48 | 45.59859 | 8.74225 | 1060 ft | 146 kts | 349° |
| 2026-04-24 00:48 | 45.60859 | 8.73959 | 902 ft | 145 kts | 349° |
| 2026-04-24 00:48 | 45.61845 | 8.73674 | 721 ft | 142 kts | 349° |
| 2026-04-24 00:49 | 45.62695 | 8.73439 | 730 ft | 104 kts | 349° |
| 2026-04-24 00:49 | 45.63252 | 8.73286 | 737 ft | 60 kts | 349° |
| 2026-04-24 00:49 | 45.63569 | 8.73192 | 745 ft | 43 kts | 342° |
| 2026-04-24 00:49 | 45.63737 | 8.73047 | 748 ft | 19 kts | 317° |
| 2026-04-24 00:50 | 45.63818 | 8.72913 | 750 ft | 17 kts | 305° |
| 2026-04-24 00:50 | 45.63886 | 8.72776 | 752 ft | 17 kts | 303° |
| 2026-04-24 00:50 | 45.63946 | 8.72637 | 751 ft | 17 kts | 302° |
| 2026-04-24 00:50 | 45.63949 | 8.72481 | 752 ft | 16 kts | 259° |
| 2026-04-24 00:51 | 45.63928 | 8.72326 | 757 ft | 16 kts | 260° |
| 2026-04-24 00:51 | 45.63904 | 8.72179 | 753 ft | 16 kts | 254° |
| 2026-04-24 00:51 | 45.63890 | 8.72015 | 756 ft | 16 kts | 287° |
| 2026-04-24 00:51 | 45.63890 | 8.71888 | 755 ft | 13 kts | 245° |
| 2026-04-24 00:52 | 45.63818 | 8.71826 | 753 ft | 13 kts | 183° |
| 2026-04-24 00:52 | 45.63727 | 8.71846 | 752 ft | 14 kts | 162° |
| 2026-04-24 00:52 | 45.63662 | 8.71864 | 750 ft | 14 kts | 172° |
| 2026-04-24 00:52 | 45.63474 | 8.71917 | 747 ft | 29 kts | 169° |
| 2026-04-24 00:53 | 45.63266 | 8.71972 | 744 ft | 31 kts | 168° |
| 2026-04-24 00:53 | 45.63137 | 8.72009 | 742 ft | 21 kts | 169° |
| 2026-04-24 00:53 | 45.63029 | 8.72021 | 742 ft | 13 kts | 196° |
| 2026-04-24 00:53 | 45.62983 | 8.71880 | 740 ft | 22 kts | 258° |
| 2026-04-24 00:54 | 45.62952 | 8.71657 | 739 ft | 21 kts | 255° |
| 2026-04-24 00:54 | 45.62891 | 8.71579 | 739 ft | 7 kts | 176° |
| 2026-04-24 00:54 | 45.62859 | 8.71586 | 739 ft | 1 kts | 170° |
| 2026-04-24 00:54 | 45.62857 | 8.71587 | 739 ft | 0 kts | 171° |